Time;durP1;ratioP1;P1;durP2;ratioP2;P2;SDS_P1;SDS_P2;PMS_P1;PMS_P2;Temp;Humidity;BMP_temperature;BMP_pressure;BME280_temperature;BME280_humidity;BME280_pressure;Samples;Min_cycle;Max_cycle;Signal;HPM_P1;HPM_P2
2022/11/18 00:01:50;;;;;;;21.50;16.80;;;;;;;;;;5052594;28;20064;-65
2022/11/18 00:04:17;;;;;;;22.80;17.90;;;;;;;;;;5050974;28;20045;-65
2022/11/18 00:06:43;;;;;;;24.40;17.83;;;;;;;;;;5053141;28;20380;-65
2022/11/18 00:09:09;;;;;;;24.35;16.80;;;;;;;;;;5052557;28;20128;-65
2022/11/18 00:14:23;;;;;;;24.92;17.85;;;;;;;;;;5053182;28;20131;-65
2022/11/18 00:16:51;;;;;;;26.33;17.90;;;;;;;;;;5052153;28;20057;-65
2022/11/18 00:19:17;;;;;;;25.95;18.38;;;;;;;;;;5053144;28;20040;-65
2022/11/18 00:21:43;;;;;;;26.48;18.33;;;;;;;;;;5052789;28;20049;-65
2022/11/18 00:24:09;;;;;;;26.23;19.15;;;;;;;;;;5052459;28;20094;-65
2022/11/18 00:26:36;;;;;;;28.50;19.20;;;;;;;;;;5052795;28;20037;-65
2022/11/18 00:29:02;;;;;;;27.23;19.10;;;;;;;;;;5052892;28;20040;-65
2022/11/18 00:31:28;;;;;;;29.67;20.10;;;;;;;;;;5052120;28;20033;-65
2022/11/18 00:33:54;;;;;;;30.48;19.95;;;;;;;;;;5052651;28;20045;-65
2022/11/18 00:36:20;;;;;;;32.03;20.45;;;;;;;;;;5052639;28;20036;-65
2022/11/18 00:38:46;;;;;;;28.48;19.70;;;;;;;;;;5052149;28;20659;-65
2022/11/18 00:41:14;;;;;;;33.40;20.75;;;;;;;;;;5052353;28;20052;-65
2022/11/18 00:43:40;;;;;;;34.08;21.70;;;;;;;;;;5052550;28;20045;-65
2022/11/18 00:46:07;;;;;;;32.33;20.63;;;;;;;;;;5052083;28;20091;-65
2022/11/18 00:48:33;;;;;;;34.97;22.55;;;;;;;;;;5052385;28;20037;-65
2022/11/18 00:51:07;;;;;;;35.30;21.48;;;;;;;;;;5052262;28;20064;-65
2022/11/18 00:53:33;;;;;;;34.38;22.05;;;;;;;;;;5051925;28;20106;-65
2022/11/18 00:55:59;;;;;;;31.75;21.17;;;;;;;;;;5052163;28;20451;-65
2022/11/18 00:58:25;;;;;;;35.30;22.05;;;;;;;;;;5051884;28;20080;-65
2022/11/18 01:00:52;;;;;;;33.55;21.95;;;;;;;;;;5050087;28;20045;-65
2022/11/18 01:03:18;;;;;;;31.30;21.00;;;;;;;;;;5051993;28;20083;-65
2022/11/18 01:05:44;;;;;;;34.22;22.13;;;;;;;;;;5052032;28;20076;-65
2022/11/18 01:08:12;;;;;;;36.58;21.58;;;;;;;;;;5051578;28;20045;-65
2022/11/18 01:10:39;;;;;;;35.97;22.42;;;;;;;;;;5051856;28;20367;-66
2022/11/18 01:13:18;;;;;;;36.25;22.38;;;;;;;;;;5052171;28;20033;-65
2022/11/18 01:15:45;;;;;;;44.40;22.48;;;;;;;;;;5051029;28;20068;-65
2022/11/18 01:18:11;;;;;;;36.30;23.20;;;;;;;;;;5051785;28;20099;-65
2022/11/18 01:20:37;;;;;;;36.58;21.75;;;;;;;;;;5051703;28;20042;-65
2022/11/18 01:23:03;;;;;;;36.85;23.30;;;;;;;;;;5049962;28;20474;-65
2022/11/18 01:25:30;;;;;;;40.42;24.10;;;;;;;;;;5051751;28;20116;-65
2022/11/18 01:27:56;;;;;;;45.13;24.42;;;;;;;;;;5051577;28;20117;-65
2022/11/18 01:30:22;;;;;;;38.97;23.80;;;;;;;;;;5051197;28;20037;-65
2022/11/18 01:32:48;;;;;;;37.92;21.88;;;;;;;;;;5051613;28;20052;-65
2022/11/18 01:35:14;;;;;;;40.88;24.02;;;;;;;;;;5051677;28;20053;-65
2022/11/18 01:37:40;;;;;;;38.45;23.67;;;;;;;;;;5050943;28;20041;-65
2022/11/18 01:40:07;;;;;;;37.30;22.48;;;;;;;;;;5051488;28;20046;-65
2022/11/18 01:42:34;;;;;;;40.38;23.38;;;;;;;;;;5051220;28;20048;-65
2022/11/18 01:45:03;;;;;;;39.67;23.05;;;;;;;;;;5051085;28;20556;-65
2022/11/18 01:47:35;;;;;;;39.50;23.00;;;;;;;;;;5051526;28;20044;-65
2022/11/18 01:50:01;;;;;;;40.60;23.70;;;;;;;;;;5051410;28;20124;-65
2022/11/18 01:52:28;;;;;;;37.15;22.33;;;;;;;;;;5051144;28;20120;-65
2022/11/18 01:54:57;;;;;;;38.28;22.77;;;;;;;;;;5051006;28;20059;-65
2022/11/18 01:57:26;;;;;;;35.20;21.90;;;;;;;;;;5050087;28;20072;-65
2022/11/18 01:59:54;;;;;;;38.28;22.83;;;;;;;;;;5050999;28;20120;-65
2022/11/18 02:02:21;;;;;;;35.17;23.13;;;;;;;;;;5051275;28;20530;-65
2022/11/18 02:04:49;;;;;;;38.58;21.88;;;;;;;;;;5051385;28;20092;-65
2022/11/18 02:07:15;;;;;;;38.85;22.88;;;;;;;;;;5050732;28;20128;-65
2022/11/18 02:09:41;;;;;;;38.00;22.55;;;;;;;;;;5051096;28;20037;-65
2022/11/18 02:12:08;;;;;;;41.20;22.85;;;;;;;;;;5051252;28;20040;-65
2022/11/18 02:14:36;;;;;;;43.97;24.45;;;;;;;;;;5050464;28;20064;-65
2022/11/18 02:17:26;;;;;;;42.33;23.27;;;;;;;;;;5051244;28;20049;-65
2022/11/18 02:20:01;;;;;;;43.15;23.25;;;;;;;;;;5051150;28;20041;-65
2022/11/18 02:22:36;;;;;;;41.30;23.90;;;;;;;;;;5050655;28;20045;-65
2022/11/18 02:25:02;;;;;;;42.35;25.40;;;;;;;;;;5051035;28;20137;-65
2022/11/18 02:27:47;;;;;;;43.28;22.55;;;;;;;;;;5049971;28;20045;-65
2022/11/18 02:30:15;;;;;;;41.20;21.90;;;;;;;;;;5054567;28;20037;-65
2022/11/18 02:32:43;;;;;;;39.55;23.92;;;;;;;;;;5054993;28;20033;-65
2022/11/18 02:35:14;;;;;;;43.75;23.67;;;;;;;;;;5053498;28;20045;-65
2022/11/18 02:37:47;;;;;;;41.60;23.50;;;;;;;;;;5053052;28;20068;-65
2022/11/18 02:40:15;;;;;;;38.17;23.23;;;;;;;;;;5054599;28;20310;-65
2022/11/18 02:42:43;;;;;;;36.58;21.20;;;;;;;;;;5054788;28;20599;-65
2022/11/18 02:45:12;;;;;;;38.17;22.40;;;;;;;;;;5054370;28;20094;-65
2022/11/18 02:47:39;;;;;;;39.78;22.60;;;;;;;;;;5054712;28;20059;-65
2022/11/18 02:50:08;;;;;;;43.63;23.92;;;;;;;;;;5054271;28;20075;-65
2022/11/18 02:52:35;;;;;;;37.72;22.65;;;;;;;;;;5054231;28;20098;-65
2022/11/18 02:55:02;;;;;;;37.65;21.92;;;;;;;;;;5054445;28;20101;-65
2022/11/18 02:57:29;;;;;;;37.38;21.95;;;;;;;;;;5054616;28;20048;-65
2022/11/18 02:59:55;;;;;;;37.78;23.70;;;;;;;;;;5054141;28;20053;-65
2022/11/18 03:02:22;;;;;;;42.95;24.42;;;;;;;;;;5054529;28;20037;-65
2022/11/18 03:04:49;;;;;;;43.53;22.83;;;;;;;;;;5053240;28;20568;-65
2022/11/18 03:07:15;;;;;;;38.20;22.65;;;;;;;;;;5053801;28;20041;-65
2022/11/18 03:09:43;;;;;;;42.35;22.85;;;;;;;;;;5054190;28;20068;-65
2022/11/18 03:12:28;;;;;;;36.20;21.65;;;;;;;;;;5054338;28;20080;-65
2022/11/18 03:15:11;;;;;;;37.88;23.08;;;;;;;;;;5053156;28;20064;-65
2022/11/18 03:17:37;;;;;;;43.67;23.20;;;;;;;;;;5054257;28;20407;-65
2022/11/18 03:20:14;;;;;;;34.95;21.83;;;;;;;;;;5053468;28;20041;-65
2022/11/18 03:23:00;;;;;;;37.72;22.67;;;;;;;;;;5053921;28;20124;-65
2022/11/18 03:25:34;;;;;;;34.88;21.45;;;;;;;;;;5053873;28;20036;-65
2022/11/18 03:28:14;;;;;;;35.30;21.70;;;;;;;;;;5053588;28;20044;-65
2022/11/18 03:30:44;;;;;;;38.00;22.33;;;;;;;;;;5053749;28;20037;-65
2022/11/18 03:33:12;;;;;;;40.17;22.85;;;;;;;;;;5053848;28;20069;-65
2022/11/18 03:35:39;;;;;;;37.30;21.75;;;;;;;;;;5053315;28;20086;-65
2022/11/18 03:38:12;;;;;;;34.65;20.63;;;;;;;;;;5052367;28;20407;-65
2022/11/18 03:40:40;;;;;;;39.03;22.33;;;;;;;;;;5052192;28;20045;-65
2022/11/18 03:43:11;;;;;;;36.15;22.13;;;;;;;;;;5035069;28;20195;-65
2022/11/18 03:45:41;;;;;;;37.95;22.75;;;;;;;;;;5053504;28;20040;-65
2022/11/18 03:48:14;;;;;;;36.28;21.88;;;;;;;;;;5053577;28;20075;-65
2022/11/18 03:50:59;;;;;;;34.45;20.90;;;;;;;;;;5053079;28;20036;-65
2022/11/18 03:53:26;;;;;;;32.60;21.00;;;;;;;;;;5053516;28;20036;-65
2022/11/18 03:55:54;;;;;;;38.50;21.88;;;;;;;;;;5053320;28;20037;-65
2022/11/18 03:58:23;;;;;;;34.67;21.20;;;;;;;;;;5052662;28;20094;-65
2022/11/18 04:00:51;;;;;;;36.60;21.33;;;;;;;;;;5053227;28;20037;-65
2022/11/18 04:03:17;;;;;;;40.55;23.05;;;;;;;;;;5053410;28;20045;-65
2022/11/18 04:05:43;;;;;;;37.65;21.70;;;;;;;;;;5052732;28;20032;-65
2022/11/18 04:08:11;;;;;;;39.08;23.35;;;;;;;;;;5053252;28;20060;-65
2022/11/18 04:10:49;;;;;;;36.53;21.88;;;;;;;;;;5053090;28;20131;-65
2022/11/18 04:13:19;;;;;;;36.17;22.02;;;;;;;;;;5052893;28;20041;-65
2022/11/18 04:15:45;;;;;;;38.45;21.38;;;;;;;;;;5052633;28;20152;-65
2022/11/18 04:18:11;;;;;;;33.75;20.77;;;;;;;;;;5052923;28;20056;-65
2022/11/18 04:20:38;;;;;;;34.70;21.23;;;;;;;;;;5052369;28;20492;-65
2022/11/18 04:23:04;;;;;;;37.30;20.98;;;;;;;;;;5052735;28;20037;-65
2022/11/18 04:25:30;;;;;;;36.25;22.77;;;;;;;;;;5052920;28;20052;-65
2022/11/18 04:27:56;;;;;;;35.80;21.95;;;;;;;;;;5052651;28;20586;-65
2022/11/18 04:30:22;;;;;;;37.47;22.88;;;;;;;;;;5052723;28;20043;-65
2022/11/18 04:32:48;;;;;;;34.65;22.05;;;;;;;;;;5051469;28;20462;-65
2022/11/18 04:35:14;;;;;;;37.72;22.52;;;;;;;;;;5051983;28;20055;-65
2022/11/18 04:37:40;;;;;;;33.83;21.48;;;;;;;;;;5052641;28;20040;-65
2022/11/18 04:40:07;;;;;;;50.25;23.17;;;;;;;;;;5052571;28;20551;-65
2022/11/18 04:42:33;;;;;;;38.00;22.38;;;;;;;;;;5051823;28;20092;-65
2022/11/18 04:44:59;;;;;;;34.97;22.10;;;;;;;;;;5052398;28;20056;-65
2022/11/18 04:47:25;;;;;;;38.05;22.08;;;;;;;;;;5052510;28;20719;-65
2022/11/18 04:49:51;;;;;;;35.25;21.50;;;;;;;;;;5051601;28;20120;-65
2022/11/18 04:52:17;;;;;;;34.17;21.20;;;;;;;;;;5051960;28;20045;-65
2022/11/18 04:54:43;;;;;;;31.77;20.52;;;;;;;;;;5052218;28;20045;-65
2022/11/18 04:57:09;;;;;;;35.80;20.95;;;;;;;;;;5051713;28;20041;-65
2022/11/18 04:59:35;;;;;;;33.00;21.48;;;;;;;;;;5052367;28;20594;-65
2022/11/18 05:02:01;;;;;;;32.35;21.00;;;;;;;;;;5051750;28;20037;-65
2022/11/18 05:04:29;;;;;;;33.95;20.17;;;;;;;;;;5051806;28;20029;-65
2022/11/18 05:06:55;;;;;;;35.13;19.60;;;;;;;;;;5052115;28;20045;-65
2022/11/18 05:09:22;;;;;;;32.08;20.17;;;;;;;;;;5051643;28;20040;-65
2022/11/18 05:14:32;;;;;;;31.35;21.17;;;;;;;;;;5051422;28;20135;-65
2022/11/18 05:16:59;;;;;;;35.30;20.15;;;;;;;;;;5051906;28;20128;-65
2022/11/18 05:19:25;;;;;;;35.80;20.92;;;;;;;;;;5051545;28;20056;-65
2022/11/18 05:21:52;;;;;;;35.28;20.38;;;;;;;;;;5051335;28;20045;-65
2022/11/18 05:24:18;;;;;;;32.80;19.58;;;;;;;;;;5051882;28;20047;-65
2022/11/18 05:26:44;;;;;;;38.97;20.50;;;;;;;;;;5051295;28;20534;-65
2022/11/18 05:29:10;;;;;;;31.90;20.30;;;;;;;;;;5051859;28;20094;-65
2022/11/18 05:31:36;;;;;;;34.45;20.73;;;;;;;;;;5051210;28;20037;-65
2022/11/18 05:34:02;;;;;;;36.67;20.02;;;;;;;;;;5049489;28;20399;-65
2022/11/18 05:36:28;;;;;;;32.22;20.25;;;;;;;;;;5051616;28;20367;-65
2022/11/18 05:38:57;;;;;;;33.10;20.02;;;;;;;;;;5051619;28;20698;-65
2022/11/18 05:44:08;;;;;;;40.00;23.23;;;;;;;;;;5051793;28;20094;-65
2022/11/18 05:46:34;;;;;;;34.97;20.80;;;;;;;;;;5051140;28;20041;-65
2022/11/18 05:49:00;;;;;;;32.08;18.77;;;;;;;;;;5050851;28;20041;-65
2022/11/18 05:51:26;;;;;;;39.33;20.27;;;;;;;;;;5050863;28;20079;-65
2022/11/18 05:53:54;;;;;;;31.25;19.38;;;;;;;;;;5051542;28;20170;-65
2022/11/18 05:56:20;;;;;;;35.28;20.08;;;;;;;;;;5050638;28;20157;-65
2022/11/18 05:58:46;;;;;;;31.75;18.73;;;;;;;;;;5051435;28;20041;-65
2022/11/18 06:01:13;;;;;;;33.50;19.67;;;;;;;;;;5051371;28;20537;-65
2022/11/18 06:03:40;;;;;;;35.60;20.23;;;;;;;;;;5053210;28;20083;-65
2022/11/18 06:06:07;;;;;;;40.60;20.50;;;;;;;;;;5055481;28;20419;-65
2022/11/18 06:08:36;;;;;;;32.70;20.00;;;;;;;;;;5055454;28;20040;-65
2022/11/18 06:11:02;;;;;;;30.70;18.42;;;;;;;;;;5054619;28;20033;-65
2022/11/18 06:13:31;;;;;;;34.47;19.80;;;;;;;;;;5055396;28;20108;-65
2022/11/18 06:15:57;;;;;;;33.42;19.67;;;;;;;;;;5054939;28;20048;-65
2022/11/18 06:18:25;;;;;;;31.55;19.02;;;;;;;;;;5054977;28;20044;-65
2022/11/18 06:20:53;;;;;;;38.95;19.95;;;;;;;;;;5054965;28;20045;-65
2022/11/18 06:23:19;;;;;;;33.97;18.90;;;;;;;;;;5055224;28;20041;-65
2022/11/18 06:25:45;;;;;;;37.20;20.23;;;;;;;;;;5054708;28;20077;-65
2022/11/18 06:28:12;;;;;;;35.88;19.33;;;;;;;;;;5055182;28;20460;-65
2022/11/18 06:30:39;;;;;;;33.40;19.85;;;;;;;;;;5054036;28;20048;-65
2022/11/18 06:33:05;;;;;;;35.05;19.80;;;;;;;;;;5053282;28;20068;-63
2022/11/18 06:35:31;;;;;;;34.63;18.58;;;;;;;;;;5053696;28;20045;-63
2022/11/18 06:37:57;;;;;;;30.55;19.52;;;;;;;;;;5054156;28;20051;-64
2022/11/18 06:40:23;;;;;;;33.63;19.52;;;;;;;;;;5053351;28;20124;-64
2022/11/18 06:45:34;;;;;;;36.75;20.17;;;;;;;;;;5054413;28;20041;-64
2022/11/18 06:48:00;;;;;;;32.15;19.60;;;;;;;;;;5054040;28;20126;-64
2022/11/18 06:50:27;;;;;;;33.95;18.50;;;;;;;;;;5054366;28;20048;-64
2022/11/18 06:52:53;;;;;;;32.00;18.55;;;;;;;;;;5054324;28;20475;-64
2022/11/18 06:55:19;;;;;;;32.50;19.17;;;;;;;;;;5053932;28;20411;-64
2022/11/18 06:57:45;;;;;;;32.28;19.17;;;;;;;;;;5054231;28;20041;-64
2022/11/18 07:00:11;;;;;;;30.73;17.88;;;;;;;;;;5052509;28;20059;-63
2022/11/18 07:02:37;;;;;;;30.67;18.17;;;;;;;;;;5053729;28;20128;-63
2022/11/18 07:05:04;;;;;;;30.27;16.63;;;;;;;;;;5053504;28;20037;-63
2022/11/18 07:07:30;;;;;;;24.48;15.02;;;;;;;;;;5054030;28;20511;-64
2022/11/18 07:09:56;;;;;;;26.48;15.43;;;;;;;;;;5053597;28;20353;-63
2022/11/18 07:12:22;;;;;;;25.73;14.05;;;;;;;;;;5054031;28;20044;-63
2022/11/18 07:14:48;;;;;;;27.77;16.02;;;;;;;;;;5053300;28;20037;-63
2022/11/18 07:17:14;;;;;;;25.55;13.65;;;;;;;;;;5053291;28;20051;-64
2022/11/18 07:19:40;;;;;;;25.88;14.55;;;;;;;;;;5053768;28;20376;-65
2022/11/18 07:22:07;;;;;;;22.52;14.27;;;;;;;;;;5053554;28;20051;-65
2022/11/18 07:24:33;;;;;;;25.13;14.25;;;;;;;;;;5053300;28;20041;-65
2022/11/18 07:26:59;;;;;;;21.48;13.52;;;;;;;;;;5053749;28;20631;-63
2022/11/18 07:29:25;;;;;;;24.42;14.27;;;;;;;;;;5053577;28;20029;-63
2022/11/18 07:31:51;;;;;;;27.70;15.00;;;;;;;;;;5053157;28;20065;-63
2022/11/18 07:34:17;;;;;;;27.92;15.30;;;;;;;;;;5053315;28;20051;-63
2022/11/18 07:36:43;;;;;;;29.58;15.63;;;;;;;;;;5052967;28;20080;-63
2022/11/18 07:39:09;;;;;;;27.63;15.43;;;;;;;;;;5052929;28;20045;-63
2022/11/18 07:41:35;;;;;;;27.45;14.40;;;;;;;;;;5052766;28;20099;-63
2022/11/18 07:44:02;;;;;;;23.77;14.55;;;;;;;;;;5053580;28;20036;-63
2022/11/18 07:46:32;;;;;;;27.05;14.63;;;;;;;;;;5052877;28;20044;-64
2022/11/18 07:48:59;;;;;;;27.15;15.73;;;;;;;;;;5054298;28;20047;-64
2022/11/18 07:51:26;;;;;;;24.85;14.68;;;;;;;;;;5051912;28;20041;-65
2022/11/18 07:53:52;;;;;;;28.58;14.60;;;;;;;;;;5052365;28;20102;-65
2022/11/18 07:56:19;;;;;;;22.60;12.98;;;;;;;;;;5052521;28;20052;-65
2022/11/18 07:58:45;;;;;;;24.02;14.20;;;;;;;;;;5052468;28;20052;-65
2022/11/18 08:01:18;;;;;;;23.63;13.50;;;;;;;;;;5052063;28;20041;-64
2022/11/18 08:03:44;;;;;;;23.73;13.48;;;;;;;;;;5053248;28;20044;-63
2022/11/18 08:06:12;;;;;;;24.48;14.20;;;;;;;;;;5053316;28;20062;-64
2022/11/18 08:08:38;;;;;;;26.90;15.60;;;;;;;;;;5051970;28;20051;-64
2022/11/18 08:11:05;;;;;;;30.30;15.93;;;;;;;;;;5051565;28;20040;-64
2022/11/18 08:13:32;;;;;;;26.17;15.15;;;;;;;;;;5051752;28;20037;-64
2022/11/18 08:15:58;;;;;;;28.38;15.85;;;;;;;;;;5051745;28;20053;-64
2022/11/18 08:18:24;;;;;;;30.88;16.17;;;;;;;;;;5051459;28;20459;-64
2022/11/18 08:20:50;;;;;;;24.88;15.70;;;;;;;;;;5051152;28;20041;-64
2022/11/18 08:23:17;;;;;;;28.52;16.10;;;;;;;;;;5051433;28;20471;-64
2022/11/18 08:25:43;;;;;;;26.77;14.95;;;;;;;;;;5050327;28;20037;-64
2022/11/18 08:28:10;;;;;;;26.50;14.70;;;;;;;;;;5052221;28;20120;-64
2022/11/18 08:30:36;;;;;;;26.65;14.65;;;;;;;;;;5051889;28;20041;-65
2022/11/18 08:33:03;;;;;;;27.20;15.20;;;;;;;;;;5051276;28;20068;-64
2022/11/18 08:35:29;;;;;;;25.15;14.70;;;;;;;;;;5051617;28;20120;-64
2022/11/18 08:37:56;;;;;;;27.05;14.40;;;;;;;;;;5052050;28;20043;-64
2022/11/18 08:40:22;;;;;;;24.00;13.93;;;;;;;;;;5051514;28;20073;-64
2022/11/18 08:42:48;;;;;;;22.17;12.77;;;;;;;;;;5051719;28;20110;-63
2022/11/18 08:45:14;;;;;;;21.05;12.98;;;;;;;;;;5051719;28;20128;-63
2022/11/18 08:47:40;;;;;;;24.25;13.70;;;;;;;;;;5051707;28;20115;-65
2022/11/18 08:50:08;;;;;;;22.83;12.65;;;;;;;;;;5051813;28;20547;-64
2022/11/18 08:52:34;;;;;;;24.35;13.40;;;;;;;;;;5051922;28;20132;-66
2022/11/18 08:55:00;;;;;;;25.33;13.77;;;;;;;;;;5051089;28;20099;-65
2022/11/18 08:57:27;;;;;;;24.35;13.60;;;;;;;;;;5051407;28;20033;-65
2022/11/18 08:59:53;;;;;;;20.38;11.82;;;;;;;;;;5051481;28;20047;-65
2022/11/18 09:02:20;;;;;;;22.13;12.57;;;;;;;;;;5050618;28;20047;-66
2022/11/18 09:04:47;;;;;;;25.13;13.55;;;;;;;;;;5051596;28;20037;-63
2022/11/18 09:07:13;;;;;;;22.75;13.02;;;;;;;;;;5051409;28;20044;-63
2022/11/18 09:09:39;;;;;;;22.35;13.20;;;;;;;;;;5050816;28;20052;-63
2022/11/18 09:12:05;;;;;;;22.92;12.88;;;;;;;;;;5051131;28;20170;-62
2022/11/18 09:14:31;;;;;;;24.13;13.60;;;;;;;;;;5049404;28;20080;-62
2022/11/18 09:16:57;;;;;;;23.38;13.88;;;;;;;;;;5050773;28;20403;-64
2022/11/18 09:19:23;;;;;;;24.30;13.77;;;;;;;;;;5051210;28;20041;-64
2022/11/18 09:21:49;;;;;;;22.17;12.75;;;;;;;;;;5050835;28;20037;-64
2022/11/18 09:24:16;;;;;;;25.30;13.73;;;;;;;;;;5050736;28;20037;-63
2022/11/18 09:26:42;;;;;;;24.05;12.73;;;;;;;;;;5051272;28;20044;-64
2022/11/18 09:29:10;;;;;;;22.50;13.13;;;;;;;;;;5051131;28;20728;-63
2022/11/18 09:31:36;;;;;;;22.80;13.68;;;;;;;;;;5050021;28;20040;-64
2022/11/18 09:34:02;;;;;;;20.85;12.48;;;;;;;;;;5050972;28;20099;-63
2022/11/18 09:36:28;;;;;;;25.33;12.75;;;;;;;;;;5050965;28;20048;-63
2022/11/18 09:38:54;;;;;;;21.23;12.55;;;;;;;;;;5050439;28;20041;-63
2022/11/18 09:41:26;;;;;;;20.02;12.18;;;;;;;;;;5050533;28;20103;-63
2022/11/18 09:44:11;;;;;;;18.77;12.02;;;;;;;;;;5051209;28;20037;-64
2022/11/18 09:46:53;;;;;;;19.98;13.15;;;;;;;;;;5050410;28;20124;-63
2022/11/18 09:49:25;;;;;;;22.42;13.68;;;;;;;;;;5051017;28;20040;-63
2022/11/18 09:51:52;;;;;;;24.77;14.73;;;;;;;;;;5051208;28;20040;-64
2022/11/18 09:54:25;;;;;;;25.08;14.65;;;;;;;;;;5050042;28;20048;-64
2022/11/18 09:56:52;;;;;;;24.05;14.45;;;;;;;;;;5050748;28;20048;-65
2022/11/18 09:59:19;;;;;;;26.65;14.85;;;;;;;;;;5050696;28;20052;-65
2022/11/18 10:01:45;;;;;;;23.63;14.68;;;;;;;;;;5050076;28;20071;-63
2022/11/18 10:04:15;;;;;;;22.30;14.20;;;;;;;;;;5051133;28;20029;-63
2022/11/18 10:06:42;;;;;;;23.30;14.57;;;;;;;;;;5050431;28;20033;-63
2022/11/18 10:09:26;;;;;;;26.67;14.10;;;;;;;;;;5049994;28;20387;-63
2022/11/18 10:11:52;;;;;;;24.65;14.35;;;;;;;;;;5050703;28;20372;-64
2022/11/18 10:14:26;;;;;;;20.48;12.98;;;;;;;;;;5050685;28;20041;-64
2022/11/18 10:16:52;;;;;;;23.55;12.80;;;;;;;;;;5049786;28;20053;-65
2022/11/18 10:19:25;;;;;;;22.65;13.25;;;;;;;;;;5050642;28;20094;-64
2022/11/18 10:22:07;;;;;;;20.45;13.43;;;;;;;;;;5050145;28;20053;-63
2022/11/18 10:24:36;;;;;;;21.33;12.57;;;;;;;;;;5050531;28;20045;-63
2022/11/18 10:27:08;;;;;;;20.10;12.43;;;;;;;;;;5050387;28;20036;-63
2022/11/18 10:29:34;;;;;;;19.83;12.40;;;;;;;;;;5049922;28;20045;-62
2022/11/18 10:32:05;;;;;;;22.00;12.73;;;;;;;;;;5050457;28;20150;-63
2022/11/18 10:34:35;;;;;;;17.95;11.70;;;;;;;;;;5050272;28;20052;-64
2022/11/18 10:37:05;;;;;;;17.60;10.65;;;;;;;;;;5049750;28;20045;-64
2022/11/18 10:39:32;;;;;;;16.13;10.43;;;;;;;;;;5049680;28;20036;-64
2022/11/18 10:42:00;;;;;;;14.45;9.85;;;;;;;;;;5050228;28;20668;-64
2022/11/18 10:44:32;;;;;;;17.73;10.80;;;;;;;;;;5050081;28;20975;-65
2022/11/18 10:47:19;;;;;;;18.42;11.38;;;;;;;;;;5050072;28;20077;-66
2022/11/18 10:49:45;;;;;;;17.60;11.43;;;;;;;;;;5038113;28;20047;-63
2022/11/18 10:52:13;;;;;;;19.60;11.73;;;;;;;;;;5053638;28;20048;-62
2022/11/18 10:54:39;;;;;;;20.23;12.27;;;;;;;;;;5054007;28;20484;-63
2022/11/18 10:57:09;;;;;;;20.65;12.85;;;;;;;;;;5053814;28;20063;-64
2022/11/18 10:59:45;;;;;;;20.65;12.20;;;;;;;;;;5053400;28;20116;-64
2022/11/18 11:02:17;;;;;;;22.60;12.27;;;;;;;;;;5053630;28;20127;-65
2022/11/18 11:04:44;;;;;;;21.00;12.00;;;;;;;;;;5054165;28;20052;-65
2022/11/18 11:07:16;;;;;;;19.15;11.55;;;;;;;;;;5053191;28;20049;-65
2022/11/18 11:09:42;;;;;;;;;;;;;;;;;;5053955;28;20407;-65
2022/11/18 11:12:17;;;;;;;18.27;10.63;;;;;;;;;;5053737;28;19924;-65
2022/11/18 11:14:47;;;;;;;19.30;11.13;;;;;;;;;;5052775;28;20037;-65
2022/11/18 11:17:14;;;;;;;18.42;10.38;;;;;;;;;;5053499;28;20061;-65
2022/11/18 11:19:43;;;;;;;16.05;10.70;;;;;;;;;;5053496;28;20377;-65
2022/11/18 11:22:12;;;;;;;18.15;10.27;;;;;;;;;;5052957;28;20041;-65
2022/11/18 11:24:39;;;;;;;16.13;9.95;;;;;;;;;;5053441;28;20102;-65
2022/11/18 11:27:09;;;;;;;17.73;10.27;;;;;;;;;;5053041;28;20044;-65
2022/11/18 11:29:45;;;;;;;19.92;10.93;;;;;;;;;;5052960;28;20069;-65
2022/11/18 11:32:11;;;;;;;16.15;10.38;;;;;;;;;;5053418;28;20072;-65
2022/11/18 11:34:51;;;;;;;14.50;10.02;;;;;;;;;;5053304;28;20048;-65
2022/11/18 11:37:37;;;;;;;17.13;10.25;;;;;;;;;;5052611;28;20394;-65
2022/11/18 11:40:28;;;;;;;15.70;9.68;;;;;;;;;;5012198;28;20053;-65
2022/11/18 11:42:57;;;;;;;14.98;9.88;;;;;;;;;;5006507;28;20063;-66
2022/11/18 11:45:26;;;;;;;15.02;9.52;;;;;;;;;;5052574;28;20083;-64
2022/11/18 11:48:10;;;;;;;15.93;9.98;;;;;;;;;;5053332;28;20097;-64
2022/11/18 11:50:54;;;;;;;15.18;10.18;;;;;;;;;;5052967;28;20041;-64
2022/11/18 11:53:27;;;;;;;18.02;9.93;;;;;;;;;;5052662;28;20053;-63
2022/11/18 11:56:05;;;;;;;19.65;10.98;;;;;;;;;;5052565;28;20048;-65
2022/11/18 11:58:31;;;;;;;18.20;10.32;;;;;;;;;;5052087;28;20048;-64
2022/11/18 12:01:04;;;;;;;16.02;10.68;;;;;;;;;;5051706;28;20044;-64
2022/11/18 12:03:36;;;;;;;15.82;9.90;;;;;;;;;;5052588;28;20064;-64
2022/11/18 12:06:02;;;;;;;13.45;8.30;;;;;;;;;;5052391;28;20059;-65
2022/11/18 12:08:30;;;;;;;13.25;7.75;;;;;;;;;;5052911;28;20047;-65
2022/11/18 12:11:00;;;;;;;10.70;7.78;;;;;;;;;;5052375;28;20455;-64
2022/11/18 12:13:26;;;;;;;10.90;7.30;;;;;;;;;;5051900;28;20041;-65
2022/11/18 12:15:58;;;;;;;12.63;7.55;;;;;;;;;;5052334;28;20053;-65
2022/11/18 12:18:34;;;;;;;12.98;7.95;;;;;;;;;;5052490;28;20060;-65
2022/11/18 12:21:00;;;;;;;10.88;7.30;;;;;;;;;;5051743;28;20045;-65
2022/11/18 12:23:27;;;;;;;14.20;7.97;;;;;;;;;;5052119;28;20041;-66
2022/11/18 12:25:55;;;;;;;11.18;7.38;;;;;;;;;;5050903;28;20044;-65
2022/11/18 12:28:22;;;;;;;14.15;8.45;;;;;;;;;;5051949;28;20041;-66
2022/11/18 12:30:49;;;;;;;12.13;7.55;;;;;;;;;;5052090;28;20391;-65
2022/11/18 12:33:16;;;;;;;13.20;7.68;;;;;;;;;;5052068;28;20047;-65
2022/11/18 12:35:46;;;;;;;12.25;8.15;;;;;;;;;;5051673;28;20080;-66
2022/11/18 12:38:30;;;;;;;13.55;8.43;;;;;;;;;;5051947;28;20099;-66
2022/11/18 12:40:56;;;;;;;13.75;8.23;;;;;;;;;;5050525;28;20098;-66
2022/11/18 12:46:30;;;;;;;14.55;9.15;;;;;;;;;;5052062;28;20083;-66
2022/11/18 12:48:56;;;;;;;15.18;8.95;;;;;;;;;;5051637;28;20037;-65
2022/11/18 12:51:23;;;;;;;17.67;9.45;;;;;;;;;;5051073;28;20392;-65
2022/11/18 12:53:50;;;;;;;14.85;8.75;;;;;;;;;;5051717;28;20499;-65
2022/11/18 12:56:22;;;;;;;16.50;8.90;;;;;;;;;;5051526;28;20072;-65
2022/11/18 12:58:52;;;;;;;18.73;9.75;;;;;;;;;;5051091;28;20044;-64
2022/11/18 13:01:20;;;;;;;15.40;9.45;;;;;;;;;;5051569;28;20076;-66
2022/11/18 13:03:46;;;;;;;16.35;9.60;;;;;;;;;;5050208;28;20503;-66
2022/11/18 13:06:15;;;;;;;16.50;10.40;;;;;;;;;;5051197;28;20495;-65
2022/11/18 13:08:41;;;;;;;15.40;9.25;;;;;;;;;;5051861;28;20040;-66
2022/11/18 13:19:25;;;;;;;16.30;8.63;;;;;;;;;;5051055;28;20049;-65
2022/11/18 13:24:46;;;;;;;14.40;8.63;;;;;;;;;;5051512;28;20033;-65
2022/11/18 13:27:20;;;;;;;17.27;9.18;;;;;;;;;;5050523;28;20037;-67
2022/11/18 13:29:46;;;;;;;17.98;9.70;;;;;;;;;;5051196;28;20471;-65
2022/11/18 13:32:12;;;;;;;17.25;10.05;;;;;;;;;;5051234;28;20037;-65
2022/11/18 13:34:49;;;;;;;19.40;10.80;;;;;;;;;;5050382;28;20047;-65
2022/11/18 13:37:19;;;;;;;22.75;10.93;;;;;;;;;;5049851;28;20049;-65
2022/11/18 13:39:47;;;;;;;17.75;10.30;;;;;;;;;;5050373;28;20116;-66
2022/11/18 13:42:21;;;;;;;20.20;11.23;;;;;;;;;;5049884;28;20102;-65
2022/11/18 13:44:53;;;;;;;19.55;10.30;;;;;;;;;;5030901;28;20049;-65
2022/11/18 13:47:19;;;;;;;;;;;;;;;;;;5047002;28;20472;-64
2022/11/18 13:49:45;;;;;;;18.90;11.25;;;;;;;;;;5049679;28;19928;-65
2022/11/18 13:52:14;;;;;;;18.90;11.07;;;;;;;;;;5050790;28;20091;-64
2022/11/18 13:54:41;;;;;;;18.98;10.55;;;;;;;;;;5050574;28;20557;-63
2022/11/18 13:57:13;;;;;;;21.73;11.95;;;;;;;;;;5050361;28;20044;-64
2022/11/18 13:59:41;;;;;;;18.90;11.50;;;;;;;;;;5050267;28;20044;-64
2022/11/18 14:02:09;;;;;;;20.45;12.20;;;;;;;;;;5050532;28;20033;-65
2022/11/18 14:04:35;;;;;;;20.55;11.23;;;;;;;;;;5050464;28;20037;-65
2022/11/18 14:07:20;;;;;;;21.05;10.63;;;;;;;;;;5050585;28;20037;-64
2022/11/18 14:09:57;;;;;;;20.05;10.75;;;;;;;;;;5032958;28;20076;-65
2022/11/18 14:12:25;;;;;;;19.17;11.10;;;;;;;;;;5050168;28;20047;-64
2022/11/18 14:14:51;;;;;;;24.52;11.82;;;;;;;;;;5050348;28;20048;-64
2022/11/18 14:17:23;;;;;;;25.42;13.13;;;;;;;;;;5050680;28;20056;-64
2022/11/18 14:19:53;;;;;;;22.23;11.48;;;;;;;;;;5049678;28;20069;-63
2022/11/18 14:22:23;;;;;;;20.85;11.90;;;;;;;;;;5050452;28;20044;-65
2022/11/18 14:25:03;;;;;;;19.27;10.65;;;;;;;;;;5053003;28;20037;-64
2022/11/18 14:27:47;;;;;;;18.38;10.05;;;;;;;;;;5053991;28;20635;-64
2022/11/18 14:30:31;;;;;;;17.63;10.57;;;;;;;;;;5054616;28;20687;-65
2022/11/18 14:33:09;;;;;;;19.50;10.27;;;;;;;;;;5054695;28;20464;-63
2022/11/18 14:35:36;;;;;;;16.25;9.23;;;;;;;;;;5053641;28;20045;-65
2022/11/18 14:38:09;;;;;;;13.60;8.90;;;;;;;;;;5054749;28;20175;-64
2022/11/18 14:40:35;;;;;;;20.92;10.85;;;;;;;;;;5054834;28;20044;-64
2022/11/18 14:43:01;;;;;;;18.13;10.00;;;;;;;;;;5054351;28;20041;-64
2022/11/18 14:45:27;;;;;;;19.95;10.25;;;;;;;;;;5054855;28;20128;-64
2022/11/18 14:47:53;;;;;;;18.75;10.30;;;;;;;;;;5054350;28;20045;-64
2022/11/18 14:50:19;;;;;;;17.17;10.23;;;;;;;;;;5054440;28;20036;-64
2022/11/18 14:52:45;;;;;;;17.00;9.85;;;;;;;;;;5054803;28;20087;-64